Flight Track Log - Related Links

Times and Time Zones

All times are in EDT time to prevent confusion due to time zone crossing. See the N589H flight status page for this flight to view local times or setup timezone preferences in your user account.

Time Position Orientation Groundspeed Altitude Reporting Facility
EDT Latitude Longitude Course Direction KTS MPH feet Rate Location/Type
Wed 08:46:24 AM 27.9333 -82.7000 270° West 152 175 600  Level Tampa TRACON
Wed 08:47:24 AM 27.9333 -82.7333 270° West 180 207 1,600 1,316 Climbing Tampa TRACON
Wed 08:48:18 AM 27.9000 -82.7833 233° Southwest 232 267 3,100 1,947 Climbing Tampa TRACON
Wed 08:49:18 AM 27.8500 -82.7667 164° South 203 234 5,300 2,100 Climbing Tampa TRACON
Wed 08:50:18 AM 27.7833 -82.7333 156° South 221 254 7,300 1,955 Climbing Tampa TRACON
Wed 08:52:16 AM 27.6769 -82.6703 152° Southeast 233 268 11,100 1,933 Climbing Miami Center
Wed 08:53:18 AM 27.6247 -82.6264 143° Southeast 233 268 13,100 1,854 Climbing Miami Center
Wed 08:54:19 AM 27.5911 -82.5658 122° Southeast 237 273 14,900 934 Climbing Miami Center
Wed 08:55:20 AM 27.5603 -82.4892 114° Southeast 270 311 15,000 49 Climbing Miami Center
Wed 08:56:22 AM 27.5200 -82.4064 119° Southeast 299 344 15,000  Level Miami Center
Wed 08:57:23 AM 27.4786 -82.3181 118° Southeast 316 364 15,000  Level Miami Center
Wed 08:58:25 AM 27.4350 -82.2294 119° Southeast 325 374 15,000  Level Miami Center
Wed 08:59:26 AM 27.3833 -82.1214 118° Southeast 328 377 15,000  Level Miami Center
Wed 09:00:28 AM 27.3400 -82.0328 119° Southeast 328 377 15,000  Level Miami Center
Wed 09:01:29 AM 27.2958 -81.9433 119° Southeast 328 377 15,000  Level Miami Center
Wed 09:02:30 AM 27.2528 -81.8542 118° Southeast 328 377 15,000  Level Miami Center
Wed 09:03:32 AM 27.2089 -81.7642 119° Southeast 328 377 15,000  Level Miami Center
Wed 09:04:33 AM 27.1644 -81.6750 119° Southeast 328 377 15,000  Level Miami Center
Wed 09:05:35 AM 27.1200 -81.5853 119° Southeast 329 379 15,000  Level Miami Center
Wed 09:06:36 AM 27.0669 -81.4778 119° Southeast 329 379 15,000  Level Miami Center
Wed 09:07:38 AM 27.0186 -81.3817 119° Southeast 333 383 15,000  Level Miami Center
Wed 09:08:39 AM 26.9747 -81.2917 119° Southeast 332 382 15,000 -439 Level Miami Center
Wed 09:09:41 AM 26.9292 -81.2022 120° Southeast 332 382 14,100 -976 Descending Miami Center
Wed 09:10:42 AM 26.8800 -81.1039 119° Southeast 334 384 13,000 -1,024 Descending Miami Center
Wed 09:11:44 AM 26.8331 -81.0067 118° Southeast 337 388 12,000 -976 Descending Miami Center
Wed 09:12:45 AM 26.7931 -80.9208 118° Southeast 327 376 11,000 -976 Descending Miami Center
Wed 09:13:47 AM 26.7506 -80.8297 118° Southeast 320 368 10,000 -976 Descending Miami Center
Wed 09:14:48 AM 26.7078 -80.7397 118° Southeast 316 364 9,000 -488 Descending Miami Center
Wed 09:15:50 AM 26.6703 -80.6550 116° Southeast 304 350 9,000 -341 Level Miami Center
Wed 09:16:51 AM 26.6303 -80.5661 117° Southeast 299 344 8,300 -829 Descending Miami Center
Wed 09:17:53 AM 26.5892 -80.4811 118° Southeast 309 356 7,300 -927 Descending Miami Center
Wed 09:18:54 AM 26.5489 -80.3944 117° Southeast 314 361 6,400 -976 Descending Miami Center
Wed 09:19:56 AM 26.5256 -80.2953 105° East 311 358 5,300 -1,024 Descending Miami Center
Wed 09:20:57 AM 26.5231 -80.2033 92° East 298 343 4,300 -976 Descending Miami Center
Wed 09:21:59 AM 26.5019 -80.1278 107° East 258 297 3,300 -1,317 Descending Miami Center
Wed 09:23:00 AM 26.4586 -80.0739 132° Southeast 223 257 1,600 -1,122 Descending Miami Center
Wed 09:24:02 AM 26.4050 -80.0719 178° South 190 219 1,000 -581 Descending Miami Center
Wed 09:25:04 AM 26.3758 -80.1028 223° Southwest 158 182 400 -581 Descending Miami Center
Wed 09:27:00 AM 26.3667 -80.1000 North  Level FlightAware

Login

Don't have an account? Register now (free) for customized features, flight alerts, and more!